createdAt,value
2023-02-11T00:00:19.543Z,6.08
2023-02-11T00:02:47.916Z,6.09
2023-02-11T00:05:15.271Z,6.09
2023-02-11T00:07:41.820Z,6.09
2023-02-11T00:10:08.856Z,6.09
2023-02-11T00:12:36.406Z,6.08
2023-02-11T00:15:03.351Z,6.07
2023-02-11T00:17:29.872Z,6.07
2023-02-11T00:19:56.546Z,6.08
2023-02-11T00:22:22.958Z,6.08
2023-02-11T00:24:49.489Z,6.09
2023-02-11T00:27:15.947Z,6.10
2023-02-11T00:29:42.414Z,6.10
2023-02-11T00:32:09.851Z,6.08
2023-02-11T00:34:36.414Z,6.08
2023-02-11T00:37:03.117Z,6.07
2023-02-11T00:39:29.666Z,6.08
2023-02-11T00:41:56.269Z,6.08
2023-02-11T00:44:22.615Z,6.07
2023-02-11T00:46:49.033Z,6.08
2023-02-11T00:49:15.444Z,6.08
2023-02-11T00:51:41.995Z,6.08
2023-02-11T00:54:08.644Z,6.09
2023-02-11T00:56:35.180Z,6.07
2023-02-11T00:59:01.698Z,6.08
2023-02-11T01:01:28.171Z,6.07
2023-02-11T01:03:54.539Z,6.08
2023-02-11T01:06:20.975Z,6.08
2023-02-11T01:08:47.336Z,6.06
2023-02-11T01:11:17.662Z,6.04
2023-02-11T01:13:44.421Z,6.07
2023-02-11T01:16:11.624Z,6.06
2023-02-11T01:18:40.000Z,6.06
2023-02-11T01:21:06.444Z,6.06
2023-02-11T01:23:33.291Z,6.05
2023-02-11T01:25:59.815Z,6.05
2023-02-11T01:28:28.568Z,6.02
2023-02-11T01:30:55.397Z,6.00
2023-02-11T01:33:22.879Z,6.00
2023-02-11T01:35:50.282Z,6.01
2023-02-11T01:38:25.734Z,6.01
2023-02-11T01:40:58.571Z,6.00
2023-02-11T01:43:26.501Z,6.00
2023-02-11T01:45:58.464Z,6.01
2023-02-11T01:48:29.265Z,6.01
2023-02-11T01:51:05.214Z,6.00
2023-02-11T01:53:52.710Z,5.99
2023-02-11T01:56:39.348Z,5.99
2023-02-11T01:59:13.384Z,5.98
2023-02-11T02:01:43.621Z,5.98
2023-02-11T02:04:11.385Z,5.98
2023-02-11T02:06:55.912Z,5.97
2023-02-11T02:09:26.631Z,5.98
2023-02-11T02:11:53.197Z,5.99
2023-02-11T02:14:19.604Z,5.99
2023-02-11T02:16:46.371Z,5.98
2023-02-11T02:19:46.818Z,5.98
2023-02-11T02:22:26.546Z,5.95
2023-02-11T02:25:31.710Z,5.95
2023-02-11T02:28:21.014Z,5.94
2023-02-11T02:31:14.001Z,5.95
2023-02-11T02:34:03.357Z,5.95
2023-02-11T02:36:40.972Z,5.91
2023-02-11T02:39:23.559Z,5.88
2023-02-11T02:41:52.763Z,5.86
2023-02-11T02:44:20.557Z,5.86
2023-02-11T02:46:47.129Z,5.84
2023-02-11T02:49:15.278Z,5.88
2023-02-11T02:52:00.173Z,5.86
2023-02-11T02:54:35.821Z,5.84
2023-02-11T02:57:19.270Z,5.86
2023-02-11T02:59:57.960Z,5.84
2023-02-11T03:02:31.308Z,5.86
2023-02-11T03:05:20.578Z,5.85
2023-02-11T03:08:10.627Z,5.86
2023-02-11T03:10:44.307Z,5.85
2023-02-11T03:13:11.847Z,5.84
2023-02-11T03:15:43.516Z,5.83
2023-02-11T03:18:15.179Z,5.82
2023-02-11T03:20:44.818Z,5.80
2023-02-11T03:23:21.973Z,5.79
2023-02-11T03:25:53.074Z,5.78
2023-02-11T03:28:32.374Z,5.78
2023-02-11T03:31:19.256Z,5.76
2023-02-11T03:34:00.142Z,5.76
2023-02-11T03:36:40.937Z,5.74
2023-02-11T03:39:09.909Z,5.76
2023-02-11T03:41:37.305Z,5.76
2023-02-11T03:44:04.628Z,5.76
2023-02-11T03:46:36.036Z,5.74
2023-02-11T03:49:09.058Z,5.73
2023-02-11T03:51:37.294Z,5.73
2023-02-11T03:54:09.344Z,5.71
2023-02-11T03:56:43.688Z,5.69
2023-02-11T03:59:10.107Z,5.70
2023-02-11T04:01:36.560Z,5.70
2023-02-11T04:04:03.170Z,5.70
2023-02-11T04:06:29.541Z,5.69
2023-02-11T04:08:56.227Z,5.69
2023-02-11T04:11:22.636Z,5.72
2023-02-11T04:13:48.967Z,5.72
2023-02-11T04:16:15.380Z,5.72
2023-02-11T04:18:41.782Z,5.73
2023-02-11T04:21:08.269Z,5.74
2023-02-11T04:23:34.825Z,5.74
2023-02-11T04:26:01.248Z,5.75
2023-02-11T04:28:29.397Z,5.73
2023-02-11T04:30:56.555Z,5.74
2023-02-11T04:33:23.207Z,5.76
2023-02-11T04:35:50.248Z,5.79
2023-02-11T04:38:17.209Z,5.77
2023-02-11T04:40:43.612Z,5.78
2023-02-11T04:43:10.003Z,5.76
2023-02-11T04:45:36.426Z,5.78
2023-02-11T04:48:03.726Z,5.78
2023-02-11T04:50:30.898Z,5.78
2023-02-11T04:52:57.298Z,5.80
2023-02-11T04:55:23.797Z,5.81
2023-02-11T04:57:50.157Z,5.82
2023-02-11T05:00:16.927Z,5.82
2023-02-11T05:02:43.336Z,5.84
2023-02-11T05:05:09.847Z,5.82
2023-02-11T05:07:36.299Z,5.82
2023-02-11T05:10:02.780Z,5.83
2023-02-11T05:12:29.123Z,5.83
2023-02-11T05:14:55.451Z,5.82
2023-02-11T05:17:21.849Z,5.83
2023-02-11T05:19:48.228Z,5.83
2023-02-11T05:22:14.653Z,5.84
2023-02-11T05:24:41.097Z,5.85
2023-02-11T05:27:07.480Z,5.85
2023-02-11T05:29:33.890Z,5.86
2023-02-11T05:32:00.425Z,5.86
2023-02-11T05:34:26.988Z,5.86
2023-02-11T05:36:53.412Z,5.87
2023-02-11T05:39:19.802Z,5.89
2023-02-11T05:41:46.170Z,5.89
2023-02-11T05:44:12.565Z,5.90
2023-02-11T05:46:38.940Z,5.91
2023-02-11T05:49:05.345Z,5.91
2023-02-11T05:51:31.726Z,5.91
2023-02-11T05:53:58.045Z,5.93
2023-02-11T05:56:24.372Z,5.92
2023-02-11T05:58:50.739Z,5.94
2023-02-11T06:01:17.162Z,5.94
2023-02-11T06:03:43.530Z,5.94
2023-02-11T06:06:11.843Z,5.93
2023-02-11T06:08:39.352Z,5.94
2023-02-11T06:11:06.004Z,5.97
2023-02-11T06:13:32.480Z,5.97
2023-02-11T06:16:00.304Z,5.97
2023-02-11T06:18:26.729Z,5.98
2023-02-11T06:20:53.304Z,5.98
2023-02-11T06:23:19.743Z,5.99
2023-02-11T06:25:46.170Z,5.99
2023-02-11T06:28:13.058Z,6.00
2023-02-11T06:30:39.637Z,6.01
2023-02-11T06:33:06.069Z,6.02
2023-02-11T06:35:33.557Z,6.03
2023-02-11T06:37:59.978Z,6.04
2023-02-11T06:40:26.413Z,6.04
2023-02-11T06:42:52.960Z,6.04
2023-02-11T06:45:20.537Z,6.03
2023-02-11T06:47:47.484Z,6.06
2023-02-11T06:50:14.693Z,6.08
2023-02-11T06:52:41.628Z,6.09
2023-02-11T06:55:08.296Z,6.10
2023-02-11T06:57:34.654Z,6.10
2023-02-11T07:00:00.978Z,6.13
2023-02-11T07:02:27.423Z,6.12
2023-02-11T07:04:53.814Z,6.13
2023-02-11T07:07:20.245Z,6.14
2023-02-11T07:09:46.559Z,6.14
2023-02-11T07:12:12.978Z,6.16
2023-02-11T07:14:39.826Z,6.17
2023-02-11T07:17:06.244Z,6.18
2023-02-11T07:19:32.640Z,6.19
2023-02-11T07:21:59.089Z,6.20
2023-02-11T07:24:25.606Z,6.21
2023-02-11T07:26:53.432Z,6.23
2023-02-11T07:29:19.860Z,6.24
2023-02-11T07:31:46.294Z,6.23
2023-02-11T07:34:12.806Z,6.26
2023-02-11T07:36:39.250Z,6.28
2023-02-11T07:39:05.582Z,6.29
2023-02-11T07:41:32.426Z,6.31
2023-02-11T07:43:58.769Z,6.32
2023-02-11T07:46:27.595Z,6.33
2023-02-11T07:48:55.096Z,6.34
2023-02-11T07:51:24.212Z,6.34
2023-02-11T07:53:51.899Z,6.35
2023-02-11T07:56:19.886Z,6.36
2023-02-11T07:58:46.529Z,6.37
2023-02-11T08:01:17.162Z,6.37
2023-02-11T08:03:44.146Z,6.38
2023-02-11T08:06:15.872Z,6.39
2023-02-11T08:08:42.704Z,6.42
2023-02-11T08:11:17.739Z,6.42
2023-02-11T08:13:44.743Z,6.43
2023-02-11T08:16:25.350Z,6.43
2023-02-11T08:18:53.158Z,6.42
2023-02-11T08:21:20.464Z,6.43
2023-02-11T08:23:46.868Z,6.44
2023-02-11T08:26:17.692Z,6.44
2023-02-11T08:28:46.128Z,6.45
2023-02-11T08:31:18.876Z,6.45
2023-02-11T08:33:45.967Z,6.46
2023-02-11T08:36:20.692Z,6.45
2023-02-11T08:38:47.111Z,6.46
2023-02-11T08:41:14.980Z,6.47
2023-02-11T08:43:45.346Z,6.47
2023-02-11T08:46:15.422Z,6.47
2023-02-11T08:48:41.941Z,6.49
2023-02-11T08:51:09.490Z,6.50
2023-02-11T08:53:36.848Z,6.51
2023-02-11T08:56:03.838Z,6.52
2023-02-11T08:58:30.753Z,6.54
2023-02-11T09:00:57.247Z,6.55
2023-02-11T09:03:23.678Z,6.57
2023-02-11T09:05:53.092Z,6.60
2023-02-11T09:08:20.807Z,6.62
2023-02-11T09:10:47.442Z,6.65
2023-02-11T09:13:14.434Z,6.67
2023-02-11T09:15:40.825Z,6.69
2023-02-11T09:18:07.477Z,6.71
2023-02-11T09:20:34.144Z,6.74
2023-02-11T09:23:00.626Z,6.76
2023-02-11T09:25:27.033Z,6.78
2023-02-11T09:27:53.832Z,6.81
2023-02-11T09:30:20.976Z,6.84
2023-02-11T09:32:47.387Z,6.86
2023-02-11T09:35:13.877Z,6.87
2023-02-11T09:37:40.251Z,6.89
2023-02-11T09:40:06.996Z,6.95
2023-02-11T09:42:48.599Z,6.99
2023-02-11T09:45:33.364Z,7.01
2023-02-11T09:48:11.632Z,7.04
2023-02-11T09:50:47.078Z,7.08
2023-02-11T09:53:32.597Z,7.06
2023-02-11T09:56:01.270Z,7.11
2023-02-11T09:58:31.801Z,7.12
2023-02-11T10:01:07.144Z,7.16
2023-02-11T10:03:42.504Z,7.19
2023-02-11T10:06:32.379Z,7.20
2023-02-11T10:09:24.538Z,7.22
2023-02-11T10:12:12.998Z,7.27
2023-02-11T10:14:58.261Z,7.30
2023-02-11T10:17:27.665Z,7.33
2023-02-11T10:20:08.716Z,7.36
2023-02-11T10:22:43.199Z,7.41
2023-02-11T10:25:45.486Z,7.46
2023-02-11T10:28:16.769Z,7.51
2023-02-11T10:31:21.477Z,7.59
2023-02-11T10:33:57.341Z,7.66
2023-02-11T10:36:28.333Z,7.70
2023-02-11T10:38:54.741Z,7.74
2023-02-11T10:41:28.159Z,7.77
2023-02-11T10:43:55.542Z,7.80
2023-02-11T10:46:31.934Z,7.83
2023-02-11T10:48:58.618Z,7.82
2023-02-11T10:51:34.368Z,7.85
2023-02-11T10:54:03.809Z,7.85
2023-02-11T10:56:34.159Z,7.85
2023-02-11T10:59:04.557Z,7.84
2023-02-11T11:01:56.381Z,7.87
2023-02-11T11:04:39.171Z,7.91
2023-02-11T11:07:13.330Z,7.94
2023-02-11T11:09:50.417Z,7.95
2023-02-11T11:12:27.444Z,8.01
2023-02-11T11:14:56.540Z,8.05
2023-02-11T11:17:22.946Z,8.08
2023-02-11T11:19:49.335Z,8.13
2023-02-11T11:22:22.329Z,8.15
2023-02-11T11:24:55.173Z,8.18
2023-02-11T11:27:24.627Z,8.20
2023-02-11T11:29:56.046Z,8.18
2023-02-11T11:32:26.513Z,8.22
2023-02-11T11:34:59.680Z,8.27
2023-02-11T11:37:29.778Z,8.29
2023-02-11T11:40:01.825Z,8.36
2023-02-11T11:42:35.006Z,8.41
2023-02-11T11:45:23.058Z,8.44
2023-02-11T11:48:11.217Z,8.48
2023-02-11T11:51:11.714Z,8.50
2023-02-11T11:53:45.135Z,8.52
2023-02-11T11:56:16.265Z,8.53
2023-02-11T11:58:43.185Z,8.56
2023-02-11T12:01:34.043Z,8.56
2023-02-11T12:04:25.738Z,8.57
2023-02-11T12:06:57.089Z,8.57
2023-02-11T12:09:31.609Z,8.59
2023-02-11T12:12:47.068Z,8.59
2023-02-11T12:15:39.180Z,8.61
2023-02-11T12:18:47.625Z,8.62
2023-02-11T12:21:32.993Z,8.65
2023-02-11T12:24:16.277Z,8.66
2023-02-11T12:26:49.587Z,8.71
2023-02-11T12:29:31.992Z,8.75
2023-02-11T12:32:10.569Z,8.77
2023-02-11T12:35:02.977Z,8.79
2023-02-11T12:38:01.848Z,8.88
2023-02-11T12:40:44.756Z,8.99
2023-02-11T12:43:24.387Z,9.00
2023-02-11T12:46:08.312Z,9.08
2023-02-11T12:48:56.305Z,9.14
2023-02-11T12:52:13.578Z,9.12
2023-02-11T12:54:51.950Z,9.06
2023-02-11T12:57:29.046Z,9.04
2023-02-11T12:59:59.681Z,9.05
2023-02-11T13:02:51.280Z,9.01
2023-02-11T13:05:50.102Z,9.01
2023-02-11T13:08:19.760Z,9.02
2023-02-11T13:10:50.455Z,9.12
2023-02-11T13:13:22.332Z,9.18
2023-02-11T13:15:56.702Z,9.20
2023-02-11T13:19:00.801Z,9.20
2023-02-11T13:21:41.022Z,9.23
2023-02-11T13:24:16.073Z,9.29
2023-02-11T13:26:57.790Z,9.28
2023-02-11T13:29:42.641Z,9.28
2023-02-11T13:32:12.525Z,9.26
2023-02-11T13:34:42.046Z,9.24
2023-02-11T13:37:21.190Z,9.23
2023-02-11T13:39:58.947Z,9.23
2023-02-11T13:42:25.634Z,9.21
2023-02-11T13:44:52.818Z,9.21
2023-02-11T13:47:38.370Z,9.21
2023-02-11T13:50:07.394Z,9.22
2023-02-11T13:52:39.001Z,9.24
2023-02-11T13:55:19.863Z,9.25
2023-02-11T13:58:06.141Z,9.22
2023-02-11T14:00:35.397Z,9.21
2023-02-11T14:03:29.719Z,9.21
2023-02-11T14:06:26.989Z,9.21
2023-02-11T14:09:09.347Z,9.18
2023-02-11T14:11:43.048Z,9.19
2023-02-11T14:14:21.758Z,9.21
2023-02-11T14:17:00.709Z,9.18
2023-02-11T14:19:47.186Z,9.17
2023-02-11T14:22:18.132Z,9.18
2023-02-11T14:24:51.234Z,9.17
2023-02-11T14:27:42.017Z,9.18
2023-02-11T14:30:12.362Z,9.22
2023-02-11T14:32:45.578Z,9.22
2023-02-11T14:35:26.879Z,9.20
2023-02-11T14:38:27.139Z,9.21
2023-02-11T14:41:23.078Z,9.22
2023-02-11T14:43:59.402Z,9.23
2023-02-11T14:46:27.765Z,9.25
2023-02-11T14:48:58.112Z,9.28
2023-02-11T14:51:28.037Z,9.28
2023-02-11T14:54:00.549Z,9.28
2023-02-11T14:56:34.375Z,9.26
2023-02-11T14:59:02.658Z,9.26
2023-02-11T15:01:37.730Z,9.26
2023-02-11T15:04:06.428Z,9.24
2023-02-11T15:06:34.355Z,9.24
2023-02-11T15:09:07.805Z,9.22
2023-02-11T15:11:39.894Z,9.21
2023-02-11T15:14:10.986Z,9.19
2023-02-11T15:16:44.213Z,9.17
2023-02-11T15:19:25.788Z,9.16
2023-02-11T15:21:53.014Z,9.16
2023-02-11T15:24:25.469Z,9.15
2023-02-11T15:27:25.752Z,9.14
2023-02-11T15:29:52.811Z,9.12
2023-02-11T15:32:22.851Z,9.11
2023-02-11T15:34:51.545Z,9.08
2023-02-11T15:37:32.141Z,9.05
2023-02-11T15:40:19.457Z,9.05
2023-02-11T15:42:58.498Z,9.06
2023-02-11T15:45:37.874Z,9.07
2023-02-11T15:48:18.617Z,9.05
2023-02-11T15:50:58.628Z,9.06
2023-02-11T15:53:33.106Z,9.03
2023-02-11T15:56:24.401Z,9.03
2023-02-11T15:58:54.536Z,9.03
2023-02-11T16:01:33.155Z,9.00
2023-02-11T16:04:01.183Z,8.99
2023-02-11T16:06:41.416Z,8.97
2023-02-11T16:09:13.788Z,8.96
2023-02-11T16:11:46.345Z,8.97
2023-02-11T16:14:29.394Z,8.98
2023-02-11T16:17:24.081Z,8.96
2023-02-11T16:19:52.973Z,8.97
2023-02-11T16:22:28.871Z,8.95
2023-02-11T16:24:58.712Z,8.92
2023-02-11T16:27:39.730Z,8.86
2023-02-11T16:30:21.013Z,8.82
2023-02-11T16:32:47.426Z,8.79
2023-02-11T16:35:14.082Z,8.77
2023-02-11T16:37:40.421Z,8.71
2023-02-11T16:40:07.550Z,8.67
2023-02-11T16:42:33.877Z,8.66
2023-02-11T16:45:00.337Z,8.66
2023-02-11T16:47:28.872Z,8.66
2023-02-11T16:49:57.160Z,8.68
2023-02-11T16:52:24.213Z,8.71
2023-02-11T16:54:51.037Z,8.70
2023-02-11T16:57:23.233Z,8.66
2023-02-11T16:59:50.105Z,8.65
2023-02-11T17:02:27.367Z,8.65
2023-02-11T17:04:55.956Z,8.64
2023-02-11T17:07:22.474Z,8.65
2023-02-11T17:09:48.886Z,8.63
2023-02-11T17:12:15.361Z,8.67
2023-02-11T17:14:41.752Z,8.67
2023-02-11T17:17:09.492Z,8.64
2023-02-11T17:19:36.080Z,8.63
2023-02-11T17:22:03.456Z,8.63
2023-02-11T17:24:29.817Z,8.60
2023-02-11T17:26:56.263Z,8.59
2023-02-11T17:29:24.819Z,8.56
2023-02-11T17:31:52.734Z,8.56
2023-02-11T17:34:20.683Z,8.56
2023-02-11T17:36:47.256Z,8.56
2023-02-11T17:39:13.954Z,8.53
2023-02-11T17:41:41.163Z,8.49
2023-02-11T17:44:08.819Z,8.47
2023-02-11T17:46:36.026Z,8.44
2023-02-11T17:49:02.746Z,8.40
2023-02-11T17:51:33.942Z,8.37
2023-02-11T17:54:06.754Z,8.37
2023-02-11T17:56:35.283Z,8.34
2023-02-11T17:59:02.810Z,8.34
2023-02-11T18:01:32.304Z,8.33
2023-02-11T18:03:58.666Z,8.31
2023-02-11T18:06:25.764Z,8.29
2023-02-11T18:08:52.235Z,8.29
2023-02-11T18:11:18.977Z,8.28
2023-02-11T18:13:45.520Z,8.26
2023-02-11T18:16:15.827Z,8.24
2023-02-11T18:18:43.472Z,8.25
2023-02-11T18:21:15.631Z,8.23
2023-02-11T18:23:42.494Z,8.23
2023-02-11T18:26:11.010Z,8.22
2023-02-11T18:28:38.572Z,8.21
2023-02-11T18:31:06.415Z,8.20
2023-02-11T18:33:33.494Z,8.19
2023-02-11T18:35:59.816Z,8.18
2023-02-11T18:38:26.225Z,8.15
2023-02-11T18:40:52.628Z,8.15
2023-02-11T18:43:20.195Z,8.13
2023-02-11T18:45:47.714Z,8.14
2023-02-11T18:48:15.006Z,8.15
2023-02-11T18:50:44.382Z,8.14
2023-02-11T18:53:12.530Z,8.14
2023-02-11T18:55:43.015Z,8.15
2023-02-11T18:58:10.165Z,8.13
2023-02-11T19:00:40.405Z,8.10
2023-02-11T19:03:07.225Z,8.08
2023-02-11T19:05:41.373Z,8.09
2023-02-11T19:08:07.742Z,8.09
2023-02-11T19:10:34.661Z,8.10
2023-02-11T19:13:01.108Z,8.13
2023-02-11T19:15:27.612Z,8.09
2023-02-11T19:17:54.074Z,8.07
2023-02-11T19:20:20.526Z,8.07
2023-02-11T19:22:46.920Z,8.06
2023-02-11T19:25:13.708Z,8.09
2023-02-11T19:27:41.701Z,8.10
2023-02-11T19:30:09.333Z,8.08
2023-02-11T19:32:35.766Z,8.08
2023-02-11T19:35:02.152Z,8.10
2023-02-11T19:37:28.550Z,8.10
2023-02-11T19:39:54.961Z,8.10
2023-02-11T19:42:21.346Z,8.07
2023-02-11T19:44:47.714Z,8.07
2023-02-11T19:47:14.112Z,8.04
2023-02-11T19:49:40.450Z,8.05
2023-02-11T19:52:06.800Z,8.06
2023-02-11T19:54:33.217Z,8.04
2023-02-11T19:56:59.711Z,8.04
2023-02-11T19:59:26.643Z,8.04
2023-02-11T20:01:53.817Z,8.09
2023-02-11T20:04:20.518Z,8.09
2023-02-11T20:06:48.844Z,8.08
2023-02-11T20:09:15.732Z,8.09
2023-02-11T20:11:42.519Z,8.13
2023-02-11T20:14:10.507Z,8.11
2023-02-11T20:16:48.022Z,8.11
2023-02-11T20:19:19.962Z,8.11
2023-02-11T20:21:48.635Z,8.09
2023-02-11T20:24:16.709Z,8.10
2023-02-11T20:26:43.419Z,8.08
2023-02-11T20:29:09.975Z,8.09
2023-02-11T20:31:36.984Z,8.06
2023-02-11T20:34:04.194Z,8.05
2023-02-11T20:36:35.452Z,8.01
2023-02-11T20:39:04.785Z,8.05
2023-02-11T20:41:34.680Z,8.07
2023-02-11T20:44:04.985Z,8.08
2023-02-11T20:46:33.504Z,8.09
2023-02-11T20:49:00.660Z,8.09
2023-02-11T20:51:30.404Z,8.05
2023-02-11T20:53:58.075Z,8.06
2023-02-11T20:56:28.681Z,8.07
2023-02-11T20:58:57.364Z,8.02
2023-02-11T21:01:27.017Z,8.02
2023-02-11T21:03:56.423Z,8.06
2023-02-11T21:06:25.594Z,8.05
2023-02-11T21:08:53.551Z,8.04
2023-02-11T21:11:20.395Z,8.06
2023-02-11T21:13:46.822Z,8.09
2023-02-11T21:16:15.423Z,8.11
2023-02-11T21:18:42.045Z,8.09
2023-02-11T21:21:08.434Z,8.08
2023-02-11T21:23:35.748Z,8.07
2023-02-11T21:26:02.263Z,8.07
2023-02-11T21:28:28.760Z,8.08
2023-02-11T21:30:56.667Z,8.10
2023-02-11T21:33:24.853Z,8.12
2023-02-11T21:35:56.184Z,8.12
2023-02-11T21:38:23.061Z,8.10
2023-02-11T21:40:49.566Z,8.05
2023-02-11T21:43:16.332Z,8.03
2023-02-11T21:45:47.538Z,8.02
2023-02-11T21:48:14.907Z,8.04
2023-02-11T21:50:43.360Z,8.05
2023-02-11T21:53:10.226Z,8.07
2023-02-11T21:55:37.486Z,8.04
2023-02-11T21:58:04.824Z,8.02
2023-02-11T22:00:31.854Z,8.04
2023-02-11T22:02:58.254Z,8.04
2023-02-11T22:05:24.760Z,8.02
2023-02-11T22:07:51.158Z,8.02
2023-02-11T22:10:18.799Z,8.06
2023-02-11T22:12:45.574Z,8.05
2023-02-11T22:15:12.453Z,8.05
2023-02-11T22:17:38.966Z,8.03
2023-02-11T22:20:06.701Z,8.04
2023-02-11T22:22:33.112Z,8.07
2023-02-11T22:25:01.756Z,8.06
2023-02-11T22:27:28.128Z,8.04
2023-02-11T22:29:54.565Z,8.01
2023-02-11T22:32:21.037Z,8.03
2023-02-11T22:34:47.452Z,8.06
2023-02-11T22:37:14.161Z,8.06
2023-02-11T22:39:41.892Z,8.05
2023-02-11T22:42:08.940Z,8.05
2023-02-11T22:44:36.996Z,8.03
2023-02-11T22:47:03.713Z,8.03
2023-02-11T22:49:32.407Z,8.04
2023-02-11T22:51:59.332Z,8.00
2023-02-11T22:54:25.910Z,8.02
2023-02-11T22:56:52.440Z,8.04
2023-02-11T22:59:19.444Z,8.05
2023-02-11T23:01:46.081Z,8.06
2023-02-11T23:04:15.090Z,8.06
2023-02-11T23:06:41.621Z,8.07
2023-02-11T23:09:10.259Z,8.08
2023-02-11T23:11:36.708Z,8.08
2023-02-11T23:14:03.793Z,8.08
2023-02-11T23:16:32.920Z,8.09
2023-02-11T23:19:01.390Z,8.05
2023-02-11T23:21:31.130Z,8.02
2023-02-11T23:24:00.405Z,8.04
2023-02-11T23:26:27.662Z,8.02
2023-02-11T23:28:54.507Z,8.01
2023-02-11T23:31:25.002Z,7.97
2023-02-11T23:33:52.046Z,7.98
2023-02-11T23:36:20.593Z,7.96
2023-02-11T23:38:47.887Z,7.92
2023-02-11T23:41:15.401Z,7.94
2023-02-11T23:43:41.893Z,7.97
2023-02-11T23:46:08.999Z,7.97
2023-02-11T23:48:40.243Z,7.95
2023-02-11T23:51:09.485Z,7.97
2023-02-11T23:53:37.058Z,7.99
2023-02-11T23:56:13.421Z,7.98
2023-02-11T23:58:39.837Z,7.98
